JCX221 EGHI-LFMQ
Flight info
| Callsign | JCX221 |
|---|---|
| Flight time | 1h 27m |
| Altitude | 33000 |
| Route | DCT AVANT N16 GWC UN859 SOPIL DCT LERGA LERGA2R |
| Aircraft | CL60/M-SBDE1E2E3FGHIJ1J4J5J7M3RWXYZ/LB1V1D1 |
Departure
| Time | 2026-04-30 08:49 |
|---|---|
| Airport | Southampton Airport (EGHI) |
Arrival
| Time | 2026-04-30 10:17 |
|---|---|
| Airport | Le Castellet Airport (LFMQ) |
| Time | Latitude | Longitude | Altitude | Speed | Heading |
|---|---|---|---|---|---|
| 2026-04-30 08:35 | 50.95343 | -1.35832 | 49 ft | 0 kts | 31° |
| 2026-04-30 08:45 | 50.95352 | -1.35840 | 49 ft | 1 kts | 265° |
| 2026-04-30 08:45 | 50.95332 | -1.35845 | 49 ft | 5 kts | 148° |
| 2026-04-30 08:45 | 50.95306 | -1.35782 | 49 ft | 8 kts | 155° |
| 2026-04-30 08:46 | 50.95241 | -1.35816 | 49 ft | 11 kts | 199° |
| 2026-04-30 08:46 | 50.95152 | -1.35866 | 49 ft | 15 kts | 200° |
| 2026-04-30 08:46 | 50.95040 | -1.35929 | 49 ft | 18 kts | 199° |
| 2026-04-30 08:46 | 50.94912 | -1.36000 | 49 ft | 15 kts | 200° |
| 2026-04-30 08:47 | 50.94796 | -1.36063 | 49 ft | 19 kts | 200° |
| 2026-04-30 08:47 | 50.94678 | -1.36129 | 49 ft | 15 kts | 201° |
| 2026-04-30 08:47 | 50.94586 | -1.36079 | 49 ft | 12 kts | 110° |
| 2026-04-30 08:47 | 50.94555 | -1.35966 | 49 ft | 5 kts | 138° |
| 2026-04-30 08:48 | 50.94556 | -1.35937 | 49 ft | 0 kts | 17° |
| 2026-04-30 08:48 | 50.94613 | -1.35909 | 49 ft | 26 kts | 20° |
| 2026-04-30 08:48 | 50.95027 | -1.35681 | 49 ft | 111 kts | 21° |
| 2026-04-30 08:49 | 50.95982 | -1.35143 | 407 ft | 165 kts | 25° |
| 2026-04-30 08:49 | 50.97094 | -1.34552 | 1443 ft | 179 kts | 26° |
| 2026-04-30 08:49 | 50.98319 | -1.34096 | 2556 ft | 192 kts | 21° |
| 2026-04-30 08:49 | 50.99615 | -1.33718 | 3429 ft | 200 kts | 20° |
| 2026-04-30 08:50 | 51.01116 | -1.33239 | 3885 ft | 239 kts | 20° |
| 2026-04-30 08:50 | 51.02763 | -1.32384 | 4292 ft | 258 kts | 38° |
| 2026-04-30 08:50 | 51.03983 | -1.30368 | 4985 ft | 261 kts | 66° |
| 2026-04-30 08:50 | 51.04541 | -1.27714 | 6400 ft | 259 kts | 86° |
| 2026-04-30 08:51 | 51.04500 | -1.24944 | 7879 ft | 256 kts | 103° |
| 2026-04-30 08:51 | 51.03914 | -1.22352 | 9344 ft | 255 kts | 119° |
| 2026-04-30 08:51 | 51.03012 | -1.19998 | 10745 ft | 257 kts | 122° |
| 2026-04-30 08:51 | 51.02050 | -1.17558 | 11618 ft | 278 kts | 122° |
| 2026-04-30 08:52 | 51.00986 | -1.14853 | 12396 ft | 300 kts | 122° |
| 2026-04-30 08:52 | 50.99865 | -1.12000 | 13375 ft | 312 kts | 122° |
| 2026-04-30 08:52 | 50.98711 | -1.09068 | 14420 ft | 319 kts | 122° |
| 2026-04-30 08:52 | 50.97533 | -1.06075 | 15564 ft | 322 kts | 122° |
| 2026-04-30 08:53 | 50.96356 | -1.03088 | 16679 ft | 324 kts | 123° |
| 2026-04-30 08:53 | 50.95158 | -1.00050 | 17685 ft | 329 kts | 122° |
| 2026-04-30 08:53 | 50.93953 | -0.96998 | 18661 ft | 333 kts | 123° |
| 2026-04-30 08:53 | 50.92721 | -0.93892 | 19594 ft | 335 kts | 124° |
| 2026-04-30 08:54 | 50.91148 | -0.91188 | 20435 ft | 339 kts | 141° |
| 2026-04-30 08:54 | 50.89240 | -0.89004 | 21154 ft | 345 kts | 142° |
| 2026-04-30 08:54 | 50.87291 | -0.86789 | 21931 ft | 347 kts | 142° |
| 2026-04-30 08:54 | 50.85312 | -0.84535 | 22659 ft | 351 kts | 142° |
| 2026-04-30 08:55 | 50.83338 | -0.82286 | 23342 ft | 355 kts | 142° |
| 2026-04-30 08:55 | 50.81305 | -0.79971 | 24030 ft | 358 kts | 142° |
| 2026-04-30 08:55 | 50.79295 | -0.77684 | 24726 ft | 361 kts | 142° |
| 2026-04-30 08:55 | 50.77266 | -0.75376 | 25336 ft | 364 kts | 142° |
| 2026-04-30 08:56 | 50.75186 | -0.73011 | 25948 ft | 368 kts | 142° |
| 2026-04-30 08:56 | 50.73119 | -0.70664 | 26508 ft | 371 kts | 142° |
| 2026-04-30 08:56 | 50.71003 | -0.68262 | 27056 ft | 374 kts | 142° |
| 2026-04-30 08:56 | 50.68888 | -0.65864 | 27559 ft | 378 kts | 142° |
| 2026-04-30 08:57 | 50.66764 | -0.63457 | 28046 ft | 381 kts | 142° |
| 2026-04-30 08:57 | 50.64600 | -0.61007 | 28517 ft | 385 kts | 142° |
| 2026-04-30 08:57 | 50.62412 | -0.58533 | 29019 ft | 386 kts | 142° |
| 2026-04-30 08:57 | 50.60226 | -0.56065 | 29614 ft | 385 kts | 142° |
| 2026-04-30 08:58 | 50.58046 | -0.53605 | 30242 ft | 383 kts | 142° |
| 2026-04-30 08:58 | 50.55919 | -0.51208 | 30857 ft | 381 kts | 142° |
| 2026-04-30 08:58 | 50.53749 | -0.48765 | 31429 ft | 379 kts | 142° |
| 2026-04-30 08:58 | 50.51614 | -0.46363 | 31913 ft | 379 kts | 142° |
| 2026-04-30 08:59 | 50.49469 | -0.43951 | 32373 ft | 380 kts | 142° |
| 2026-04-30 08:59 | 50.47313 | -0.41531 | 32796 ft | 381 kts | 142° |
| 2026-04-30 08:59 | 50.45146 | -0.39101 | 33129 ft | 384 kts | 142° |
| 2026-04-30 09:00 | 50.40657 | -0.34072 | 33167 ft | 406 kts | 143° |
| 2026-04-30 09:00 | 50.35928 | -0.28788 | 33172 ft | 423 kts | 143° |
| 2026-04-30 09:01 | 50.30838 | -0.24087 | 33163 ft | 430 kts | 155° |
| 2026-04-30 09:01 | 50.25169 | -0.20838 | 33164 ft | 431 kts | 158° |
| 2026-04-30 09:02 | 50.16585 | -0.16010 | 33161 ft | 431 kts | 158° |
| 2026-04-30 09:02 | 50.10921 | -0.12831 | 33177 ft | 431 kts | 158° |
| 2026-04-30 09:03 | 50.05250 | -0.09655 | 33174 ft | 432 kts | 158° |
| 2026-04-30 09:03 | 49.99578 | -0.06485 | 33177 ft | 431 kts | 158° |
| 2026-04-30 09:04 | 49.93873 | -0.03303 | 33171 ft | 432 kts | 158° |
| 2026-04-30 09:04 | 49.88216 | -0.00154 | 33171 ft | 433 kts | 158° |
| 2026-04-30 09:05 | 49.82525 | 0.03004 | 33166 ft | 433 kts | 158° |
| 2026-04-30 09:05 | 49.76851 | 0.06147 | 33161 ft | 435 kts | 158° |
| 2026-04-30 09:06 | 49.71170 | 0.09286 | 33158 ft | 436 kts | 158° |
| 2026-04-30 09:06 | 49.65438 | 0.12445 | 33153 ft | 437 kts | 158° |
| 2026-04-30 09:07 | 49.59678 | 0.15613 | 33150 ft | 438 kts | 158° |
| 2026-04-30 09:07 | 49.53876 | 0.18795 | 33150 ft | 439 kts | 158° |
| 2026-04-30 09:08 | 49.48066 | 0.21974 | 33142 ft | 441 kts | 158° |
| 2026-04-30 09:08 | 49.42250 | 0.25148 | 33146 ft | 443 kts | 158° |
| 2026-04-30 09:09 | 49.36437 | 0.28313 | 33137 ft | 443 kts | 158° |
| 2026-04-30 09:09 | 49.30619 | 0.31436 | 33127 ft | 444 kts | 160° |
| 2026-04-30 09:10 | 49.24641 | 0.33992 | 33134 ft | 446 kts | 162° |
| 2026-04-30 09:10 | 49.18584 | 0.36532 | 33135 ft | 446 kts | 162° |
| 2026-04-30 09:11 | 49.12563 | 0.39052 | 33133 ft | 447 kts | 162° |
| 2026-04-30 09:11 | 49.06536 | 0.41572 | 33123 ft | 448 kts | 162° |
| 2026-04-30 09:12 | 49.00504 | 0.44089 | 33121 ft | 449 kts | 162° |
| 2026-04-30 09:12 | 48.94480 | 0.46562 | 33124 ft | 450 kts | 164° |
| 2026-04-30 09:13 | 48.88249 | 0.48557 | 33119 ft | 451 kts | 166° |
| 2026-04-30 09:13 | 48.82092 | 0.50498 | 33114 ft | 451 kts | 166° |
| 2026-04-30 09:14 | 48.75975 | 0.52426 | 33124 ft | 451 kts | 166° |
| 2026-04-30 09:14 | 48.69809 | 0.54368 | 33114 ft | 451 kts | 166° |
| 2026-04-30 09:15 | 48.63697 | 0.56291 | 33110 ft | 451 kts | 166° |
| 2026-04-30 09:15 | 48.57555 | 0.58221 | 33119 ft | 452 kts | 166° |
| 2026-04-30 09:16 | 48.51371 | 0.60160 | 33105 ft | 452 kts | 166° |
| 2026-04-30 09:16 | 48.45178 | 0.62098 | 33110 ft | 453 kts | 166° |
| 2026-04-30 09:17 | 48.38982 | 0.64034 | 33106 ft | 453 kts | 166° |
| 2026-04-30 09:17 | 48.32801 | 0.65960 | 33105 ft | 454 kts | 167° |
| 2026-04-30 09:18 | 48.26602 | 0.67887 | 33094 ft | 455 kts | 167° |
| 2026-04-30 09:18 | 48.20389 | 0.69814 | 33095 ft | 455 kts | 167° |
| 2026-04-30 09:19 | 48.14180 | 0.71736 | 33086 ft | 456 kts | 167° |
| 2026-04-30 09:19 | 48.08006 | 0.73642 | 33096 ft | 456 kts | 167° |
| 2026-04-30 09:20 | 48.01728 | 0.75576 | 33092 ft | 457 kts | 167° |
| 2026-04-30 09:20 | 47.95540 | 0.77477 | 33087 ft | 458 kts | 167° |
| 2026-04-30 09:21 | 47.89290 | 0.79393 | 33085 ft | 458 kts | 167° |
| 2026-04-30 09:21 | 47.83051 | 0.81300 | 33082 ft | 457 kts | 167° |
| 2026-04-30 09:22 | 47.76822 | 0.83200 | 33078 ft | 457 kts | 167° |
| 2026-04-30 09:22 | 47.70625 | 0.85086 | 33081 ft | 457 kts | 167° |
| 2026-04-30 09:23 | 47.64428 | 0.86967 | 33073 ft | 456 kts | 167° |
| 2026-04-30 09:23 | 47.58213 | 0.88849 | 33075 ft | 455 kts | 167° |
| 2026-04-30 09:24 | 47.52035 | 0.90715 | 33075 ft | 455 kts | 166° |
| 2026-04-30 09:24 | 47.45796 | 0.92660 | 33067 ft | 453 kts | 163° |
| 2026-04-30 09:25 | 47.39885 | 0.96089 | 33072 ft | 449 kts | 150° |
| 2026-04-30 09:25 | 47.34810 | 1.01379 | 33068 ft | 447 kts | 137° |
| 2026-04-30 09:26 | 47.30271 | 1.07616 | 33064 ft | 446 kts | 136° |
| 2026-04-30 09:26 | 47.25719 | 1.13878 | 33073 ft | 446 kts | 136° |
| 2026-04-30 09:27 | 47.21157 | 1.20139 | 33069 ft | 446 kts | 136° |
| 2026-04-30 09:27 | 47.16589 | 1.26395 | 33063 ft | 446 kts | 136° |
| 2026-04-30 09:28 | 47.11985 | 1.32684 | 33057 ft | 446 kts | 136° |
| 2026-04-30 09:28 | 47.07449 | 1.38868 | 33062 ft | 447 kts | 136° |
| 2026-04-30 09:29 | 47.02856 | 1.45114 | 33056 ft | 447 kts | 136° |
| 2026-04-30 09:29 | 46.98227 | 1.51394 | 33059 ft | 447 kts | 136° |
| 2026-04-30 09:30 | 46.93658 | 1.57576 | 33059 ft | 447 kts | 136° |
| 2026-04-30 09:30 | 46.89032 | 1.63822 | 33061 ft | 448 kts | 136° |
| 2026-04-30 09:31 | 46.84425 | 1.70027 | 33063 ft | 449 kts | 137° |
| 2026-04-30 09:31 | 46.79805 | 1.76234 | 33059 ft | 450 kts | 137° |
| 2026-04-30 09:32 | 46.75179 | 1.82433 | 33058 ft | 450 kts | 137° |
| 2026-04-30 09:32 | 46.70530 | 1.88648 | 33059 ft | 451 kts | 137° |
| 2026-04-30 09:33 | 46.65855 | 1.94884 | 33059 ft | 451 kts | 137° |
| 2026-04-30 09:33 | 46.61228 | 2.01040 | 33059 ft | 451 kts | 137° |
| 2026-04-30 09:34 | 46.56599 | 2.07184 | 33061 ft | 452 kts | 137° |
| 2026-04-30 09:34 | 46.51949 | 2.13341 | 33067 ft | 453 kts | 137° |
| 2026-04-30 09:35 | 46.47300 | 2.19481 | 33070 ft | 453 kts | 137° |
| 2026-04-30 09:35 | 46.42594 | 2.25681 | 33076 ft | 453 kts | 137° |
| 2026-04-30 09:36 | 46.37888 | 2.31868 | 33082 ft | 453 kts | 137° |
| 2026-04-30 09:36 | 46.33212 | 2.37999 | 33079 ft | 453 kts | 137° |
| 2026-04-30 09:37 | 46.28529 | 2.44124 | 33080 ft | 453 kts | 137° |
| 2026-04-30 09:37 | 46.23837 | 2.50246 | 33083 ft | 454 kts | 137° |
| 2026-04-30 09:38 | 46.19085 | 2.56432 | 33083 ft | 454 kts | 137° |
| 2026-04-30 09:38 | 46.14356 | 2.62573 | 33086 ft | 454 kts | 137° |
| 2026-04-30 09:39 | 46.09671 | 2.68643 | 33085 ft | 454 kts | 138° |
| 2026-04-30 09:39 | 46.04948 | 2.74748 | 33086 ft | 455 kts | 138° |
| 2026-04-30 09:40 | 46.00196 | 2.80874 | 33089 ft | 455 kts | 138° |
| 2026-04-30 09:40 | 45.95481 | 2.86938 | 33093 ft | 455 kts | 138° |
| 2026-04-30 09:41 | 45.90766 | 2.92988 | 33095 ft | 455 kts | 138° |
| 2026-04-30 09:41 | 45.86020 | 2.99063 | 33098 ft | 455 kts | 138° |
| 2026-04-30 09:42 | 45.81284 | 3.05111 | 33090 ft | 455 kts | 138° |
| 2026-04-30 09:42 | 45.76564 | 3.11124 | 33085 ft | 456 kts | 138° |
| 2026-04-30 09:43 | 45.71833 | 3.17137 | 33089 ft | 455 kts | 138° |
| 2026-04-30 09:43 | 45.67073 | 3.23173 | 33087 ft | 456 kts | 138° |
| 2026-04-30 09:44 | 45.62306 | 3.29202 | 33092 ft | 456 kts | 138° |
| 2026-04-30 09:44 | 45.57515 | 3.35248 | 33096 ft | 456 kts | 138° |
| 2026-04-30 09:45 | 45.52779 | 3.41211 | 33111 ft | 456 kts | 139° |
| 2026-04-30 09:45 | 45.47966 | 3.47255 | 33113 ft | 456 kts | 139° |
| 2026-04-30 09:46 | 45.43170 | 3.53265 | 33111 ft | 457 kts | 139° |
| 2026-04-30 09:46 | 45.38406 | 3.59219 | 33110 ft | 459 kts | 139° |
| 2026-04-30 09:47 | 45.33566 | 3.65254 | 33113 ft | 461 kts | 140° |
| 2026-04-30 09:47 | 45.28728 | 3.71274 | 33119 ft | 462 kts | 140° |
| 2026-04-30 09:48 | 45.23610 | 3.76754 | 33121 ft | 461 kts | 151° |
| 2026-04-30 09:48 | 45.17974 | 3.81296 | 33124 ft | 461 kts | 151° |
| 2026-04-30 09:49 | 45.12394 | 3.85789 | 33121 ft | 462 kts | 151° |
| 2026-04-30 09:49 | 45.06767 | 3.90311 | 33121 ft | 463 kts | 151° |
| 2026-04-30 09:50 | 45.01118 | 3.94841 | 33122 ft | 463 kts | 151° |
| 2026-04-30 09:50 | 44.95508 | 3.99329 | 33125 ft | 463 kts | 152° |
| 2026-04-30 09:51 | 44.89841 | 4.03854 | 33129 ft | 464 kts | 152° |
| 2026-04-30 09:51 | 44.84232 | 4.08322 | 33141 ft | 464 kts | 152° |
| 2026-04-30 09:52 | 44.78547 | 4.12841 | 33144 ft | 464 kts | 152° |
| 2026-04-30 09:52 | 44.72859 | 4.17352 | 33141 ft | 464 kts | 152° |
| 2026-04-30 09:53 | 44.67243 | 4.21797 | 33136 ft | 463 kts | 152° |
| 2026-04-30 09:53 | 44.61607 | 4.26248 | 33125 ft | 464 kts | 152° |
| 2026-04-30 09:54 | 44.55975 | 4.30685 | 33121 ft | 464 kts | 152° |
| 2026-04-30 09:54 | 44.50256 | 4.35180 | 32991 ft | 461 kts | 152° |
| 2026-04-30 09:55 | 44.47426 | 4.37402 | 32473 ft | 452 kts | 152° |
| 2026-04-30 09:55 | 44.44666 | 4.39566 | 31918 ft | 444 kts | 152° |
| 2026-04-30 09:55 | 44.41974 | 4.41674 | 31363 ft | 436 kts | 152° |
| 2026-04-30 09:55 | 44.39310 | 4.43757 | 30794 ft | 430 kts | 152° |
| 2026-04-30 09:56 | 44.36715 | 4.45786 | 30235 ft | 424 kts | 152° |
| 2026-04-30 09:56 | 44.34164 | 4.47777 | 29674 ft | 422 kts | 152° |
| 2026-04-30 09:56 | 44.31603 | 4.49773 | 29119 ft | 424 kts | 152° |
| 2026-04-30 09:56 | 44.29020 | 4.51785 | 28550 ft | 426 kts | 152° |
| 2026-04-30 09:57 | 44.26443 | 4.53789 | 27991 ft | 425 kts | 152° |
| 2026-04-30 09:57 | 44.23867 | 4.55792 | 27425 ft | 420 kts | 152° |
| 2026-04-30 09:57 | 44.21335 | 4.57759 | 26867 ft | 413 kts | 152° |
| 2026-04-30 09:57 | 44.18838 | 4.59697 | 26326 ft | 407 kts | 152° |
| 2026-04-30 09:58 | 44.16382 | 4.61601 | 25786 ft | 401 kts | 152° |
| 2026-04-30 09:58 | 44.13942 | 4.63491 | 25256 ft | 395 kts | 152° |
| 2026-04-30 09:58 | 44.11566 | 4.65329 | 24731 ft | 390 kts | 152° |
| 2026-04-30 09:58 | 44.09215 | 4.67146 | 24221 ft | 385 kts | 152° |
| 2026-04-30 09:59 | 44.04593 | 4.70714 | 23217 ft | 374 kts | 152° |
| 2026-04-30 09:59 | 44.00120 | 4.74153 | 22240 ft | 363 kts | 154° |
| 2026-04-30 10:00 | 43.95592 | 4.76875 | 21299 ft | 351 kts | 159° |
| 2026-04-30 10:00 | 43.93345 | 4.78142 | 20838 ft | 347 kts | 159° |
| 2026-04-30 10:01 | 43.88960 | 4.80614 | 19933 ft | 338 kts | 159° |
| 2026-04-30 10:01 | 43.86795 | 4.81834 | 19491 ft | 333 kts | 159° |
| 2026-04-30 10:01 | 43.84677 | 4.83026 | 19054 ft | 329 kts | 159° |
| 2026-04-30 10:02 | 43.80408 | 4.85427 | 18179 ft | 329 kts | 159° |
| 2026-04-30 10:02 | 43.78314 | 4.86603 | 17743 ft | 328 kts | 159° |
| 2026-04-30 10:02 | 43.76202 | 4.87789 | 17306 ft | 325 kts | 159° |
| 2026-04-30 10:02 | 43.74831 | 4.88559 | 17034 ft | 324 kts | 159° |
| 2026-04-30 10:03 | 43.72752 | 4.89725 | 16567 ft | 322 kts | 159° |
| 2026-04-30 10:03 | 43.70674 | 4.90890 | 16204 ft | 319 kts | 159° |
| 2026-04-30 10:03 | 43.69148 | 4.91745 | 15835 ft | 320 kts | 159° |
| 2026-04-30 10:03 | 43.67098 | 4.92893 | 15313 ft | 321 kts | 159° |
| 2026-04-30 10:04 | 43.65042 | 4.94043 | 14891 ft | 316 kts | 159° |
| 2026-04-30 10:04 | 43.63038 | 4.95167 | 14468 ft | 313 kts | 158° |
| 2026-04-30 10:04 | 43.61186 | 4.96707 | 14058 ft | 310 kts | 138° |
| 2026-04-30 10:04 | 43.59714 | 4.98864 | 13627 ft | 308 kts | 131° |
| 2026-04-30 10:05 | 43.58297 | 5.01060 | 13221 ft | 305 kts | 132° |
| 2026-04-30 10:05 | 43.56890 | 5.03228 | 12816 ft | 304 kts | 132° |
| 2026-04-30 10:05 | 43.55475 | 5.05406 | 12413 ft | 302 kts | 132° |
| 2026-04-30 10:05 | 43.54079 | 5.07554 | 12013 ft | 299 kts | 132° |
| 2026-04-30 10:06 | 43.52700 | 5.09675 | 11619 ft | 296 kts | 133° |
| 2026-04-30 10:06 | 43.51339 | 5.11767 | 11228 ft | 292 kts | 133° |
| 2026-04-30 10:06 | 43.49990 | 5.13839 | 10849 ft | 289 kts | 133° |
| 2026-04-30 10:06 | 43.48661 | 5.15878 | 10464 ft | 287 kts | 133° |
| 2026-04-30 10:07 | 43.47334 | 5.17913 | 10088 ft | 284 kts | 133° |
| 2026-04-30 10:07 | 43.46024 | 5.19922 | 9712 ft | 280 kts | 133° |
| 2026-04-30 10:07 | 43.44730 | 5.21904 | 9345 ft | 278 kts | 133° |
| 2026-04-30 10:07 | 43.43431 | 5.23892 | 8970 ft | 277 kts | 132° |
| 2026-04-30 10:08 | 43.42146 | 5.25856 | 8604 ft | 276 kts | 132° |
| 2026-04-30 10:08 | 43.40860 | 5.27822 | 8245 ft | 275 kts | 132° |
| 2026-04-30 10:08 | 43.39592 | 5.29760 | 7867 ft | 274 kts | 132° |
| 2026-04-30 10:08 | 43.38339 | 5.31691 | 7523 ft | 270 kts | 129° |
| 2026-04-30 10:09 | 43.37454 | 5.33944 | 7157 ft | 267 kts | 108° |
| 2026-04-30 10:09 | 43.36951 | 5.36401 | 6791 ft | 264 kts | 105° |
| 2026-04-30 10:09 | 43.36463 | 5.38793 | 6437 ft | 259 kts | 106° |
| 2026-04-30 10:09 | 43.35979 | 5.41155 | 6112 ft | 254 kts | 106° |
| 2026-04-30 10:10 | 43.35506 | 5.43457 | 5783 ft | 249 kts | 106° |
| 2026-04-30 10:10 | 43.35039 | 5.45732 | 5452 ft | 244 kts | 106° |
| 2026-04-30 10:10 | 43.34583 | 5.47947 | 5135 ft | 239 kts | 106° |
| 2026-04-30 10:10 | 43.34072 | 5.50067 | 5009 ft | 226 kts | 110° |
| 2026-04-30 10:11 | 43.33517 | 5.51991 | 5000 ft | 206 kts | 112° |
| 2026-04-30 10:11 | 43.33020 | 5.53700 | 5012 ft | 179 kts | 111° |
| 2026-04-30 10:11 | 43.32585 | 5.55196 | 5012 ft | 164 kts | 111° |
| 2026-04-30 10:11 | 43.32160 | 5.56657 | 4986 ft | 163 kts | 111° |
| 2026-04-30 10:12 | 43.31748 | 5.58073 | 4972 ft | 156 kts | 111° |
| 2026-04-30 10:12 | 43.31342 | 5.59467 | 4984 ft | 158 kts | 111° |
| 2026-04-30 10:12 | 43.30934 | 5.60870 | 4899 ft | 160 kts | 111° |
| 2026-04-30 10:12 | 43.30522 | 5.62284 | 4592 ft | 158 kts | 110° |
| 2026-04-30 10:13 | 43.30121 | 5.63659 | 4351 ft | 151 kts | 110° |
| 2026-04-30 10:13 | 43.29737 | 5.64979 | 4091 ft | 150 kts | 111° |
| 2026-04-30 10:13 | 43.29351 | 5.66295 | 3787 ft | 145 kts | 111° |
| 2026-04-30 10:13 | 43.29001 | 5.67495 | 3457 ft | 131 kts | 111° |
| 2026-04-30 10:14 | 43.28702 | 5.68509 | 3164 ft | 116 kts | 114° |
| 2026-04-30 10:14 | 43.28451 | 5.69318 | 2968 ft | 109 kts | 110° |
| 2026-04-30 10:14 | 43.27917 | 5.71188 | 2371 ft | 104 kts | 109° |
| 2026-04-30 10:15 | 43.27665 | 5.72095 | 2221 ft | 105 kts | 108° |
| 2026-04-30 10:15 | 43.27469 | 5.72795 | 2098 ft | 113 kts | 112° |
| 2026-04-30 10:15 | 43.27157 | 5.73822 | 2139 ft | 116 kts | 112° |
| 2026-04-30 10:15 | 43.27015 | 5.74890 | 1955 ft | 112 kts | 103° |
| 2026-04-30 10:16 | 43.26698 | 5.75819 | 1791 ft | 105 kts | 116° |
| 2026-04-30 10:16 | 43.26259 | 5.76702 | 1625 ft | 120 kts | 120° |
| 2026-04-30 10:16 | 43.25771 | 5.77585 | 1440 ft | 109 kts | 120° |
| 2026-04-30 10:17 | 43.25178 | 5.78671 | 1379 ft | 9 kts | 136° |
| 2026-04-30 10:17 | 43.25121 | 5.78641 | 1379 ft | 0 kts | 221° |
| 2026-04-30 10:18 | 43.25120 | 5.78640 | 1379 ft | 1 kts | 219° |
| 2026-04-30 10:18 | 43.25103 | 5.78622 | 1379 ft | 5 kts | 214° |
| 2026-04-30 10:18 | 43.25098 | 5.78557 | 1379 ft | 7 kts | 316° |
| 2026-04-30 10:19 | 43.25183 | 5.78404 | 1377 ft | 10 kts | 308° |
| 2026-04-30 10:19 | 43.25217 | 5.78350 | 1376 ft | 8 kts | 339° |
| 2026-04-30 10:19 | 43.25224 | 5.78392 | 1377 ft | 0 kts | 126° |